Time;durP1;ratioP1;P1;durP2;ratioP2;P2;SDS_P1;SDS_P2;PMS_P1;PMS_P2;Temp;Humidity;BMP_temperature;BMP_pressure;BME280_temperature;BME280_humidity;BME280_pressure;Samples;Min_cycle;Max_cycle;Signal;HPM_P1;HPM_P2
2023/06/30 00:02:18;;;;;;;4.50;3.93;;;;;;;;;;5029920;28;20041;-61
2023/06/30 00:04:43;;;;;;;5.38;3.97;;;;;;;;;;5025705;28;20300;-58
2023/06/30 00:07:09;;;;;;;6.33;4.13;;;;;;;;;;5024866;28;20477;-59
2023/06/30 00:09:34;;;;;;;4.22;3.60;;;;;;;;;;5036372;28;20276;-59
2023/06/30 00:12:00;;;;;;;5.23;3.67;;;;;;;;;;5042956;28;20047;-60
2023/06/30 00:14:25;;;;;;;6.70;3.50;;;;;;;;;;5033602;28;20276;-60
2023/06/30 00:16:50;;;;;;;5.07;3.40;;;;;;;;;;5031896;28;20438;-59
2023/06/30 00:19:16;;;;;;;5.35;4.20;;;;;;;;;;5011856;28;20391;-58
2023/06/30 00:21:41;;;;;;;4.85;3.70;;;;;;;;;;5029694;28;20030;-59
2023/06/30 00:24:08;;;;;;;4.47;3.70;;;;;;;;;;5029539;28;20089;-59
2023/06/30 00:26:33;;;;;;;5.80;3.83;;;;;;;;;;5008375;28;20068;-58
2023/06/30 00:29:00;;;;;;;5.60;3.67;;;;;;;;;;5041570;28;20069;-60
2023/06/30 00:31:25;;;;;;;5.10;3.85;;;;;;;;;;5020093;28;20041;-59
2023/06/30 00:33:50;;;;;;;5.25;3.70;;;;;;;;;;5027028;28;20040;-58
2023/06/30 00:36:15;;;;;;;7.18;4.20;;;;;;;;;;5035062;28;20538;-59
2023/06/30 00:38:41;;;;;;;4.77;3.87;;;;;;;;;;5040331;28;20128;-62
2023/06/30 00:41:06;;;;;;;4.65;3.88;;;;;;;;;;5041067;28;20307;-59
2023/06/30 00:43:32;;;;;;;4.45;4.05;;;;;;;;;;5031392;28;20041;-58
2023/06/30 00:45:57;;;;;;;6.60;4.25;;;;;;;;;;5036816;28;20049;-58
2023/06/30 00:48:22;;;;;;;7.50;4.78;;;;;;;;;;5037010;28;20033;-59
2023/06/30 00:50:47;;;;;;;7.07;3.90;;;;;;;;;;5027803;28;20140;-58
2023/06/30 00:53:13;;;;;;;6.10;4.40;;;;;;;;;;5013667;28;20052;-58
2023/06/30 00:55:39;;;;;;;5.93;4.05;;;;;;;;;;5020070;28;20045;-59
2023/06/30 00:58:04;;;;;;;6.13;4.30;;;;;;;;;;5031498;28;20041;-58
2023/06/30 01:00:30;;;;;;;5.57;4.20;;;;;;;;;;5039007;28;20529;-58
2023/06/30 01:03:01;;;;;;;4.97;4.27;;;;;;;;;;5029174;28;20698;-58
2023/06/30 01:05:38;;;;;;;6.03;4.43;;;;;;;;;;5018020;28;20297;-61
2023/06/30 01:08:15;;;;;;;5.65;4.47;;;;;;;;;;5029111;28;20052;-59
2023/06/30 01:10:41;;;;;;;5.30;4.70;;;;;;;;;;5013087;28;20923;-59
2023/06/30 01:13:06;;;;;;;9.10;4.93;;;;;;;;;;4998474;28;20048;-60
2023/06/30 01:15:31;;;;;;;8.30;4.53;;;;;;;;;;5011163;28;20507;-58
2023/06/30 01:17:59;;;;;;;5.78;4.47;;;;;;;;;;5027720;28;20041;-58
2023/06/30 01:20:24;;;;;;;6.13;4.70;;;;;;;;;;5043135;28;20533;-58
2023/06/30 01:22:50;;;;;;;6.60;4.45;;;;;;;;;;4992345;28;20045;-58
2023/06/30 01:25:20;;;;;;;6.43;4.55;;;;;;;;;;5027404;28;20041;-59
2023/06/30 01:27:45;;;;;;;9.40;4.80;;;;;;;;;;5041531;28;20403;-58
2023/06/30 01:30:11;;;;;;;7.75;4.78;;;;;;;;;;5025570;28;20040;-59
2023/06/30 01:32:36;;;;;;;7.70;5.00;;;;;;;;;;5018224;28;20045;-58
2023/06/30 01:35:02;;;;;;;7.57;4.47;;;;;;;;;;5038377;28;20038;-57
2023/06/30 01:37:27;;;;;;;8.27;4.88;;;;;;;;;;5034607;28;20291;-61
2023/06/30 01:39:52;;;;;;;7.20;4.97;;;;;;;;;;5042722;28;20043;-60
2023/06/30 01:42:17;;;;;;;6.97;4.87;;;;;;;;;;5015700;28;20280;-58
2023/06/30 01:44:43;;;;;;;6.82;4.68;;;;;;;;;;5017490;28;20408;-58
2023/06/30 01:47:08;;;;;;;6.13;4.90;;;;;;;;;;5030431;28;20558;-62
2023/06/30 01:49:34;;;;;;;6.55;4.80;;;;;;;;;;5016337;28;20038;-59
2023/06/30 01:51:59;;;;;;;6.45;4.35;;;;;;;;;;5039439;28;20132;-59
2023/06/30 01:54:24;;;;;;;6.63;5.00;;;;;;;;;;5028985;28;20491;-60
2023/06/30 01:56:49;;;;;;;6.53;4.50;;;;;;;;;;5026313;28;20663;-59
2023/06/30 01:59:15;;;;;;;5.93;4.70;;;;;;;;;;5038178;28;20740;-60
2023/06/30 02:01:40;;;;;;;9.15;4.80;;;;;;;;;;5026083;28;20036;-59
2023/06/30 02:04:05;;;;;;;6.50;4.33;;;;;;;;;;5032510;28;20045;-59
2023/06/30 02:06:30;;;;;;;5.47;4.63;;;;;;;;;;5016044;28;20823;-59
2023/06/30 02:08:56;;;;;;;5.55;4.35;;;;;;;;;;5042568;28;20337;-59
2023/06/30 02:11:21;;;;;;;5.73;4.43;;;;;;;;;;5044440;28;20473;-60
2023/06/30 02:13:46;;;;;;;4.90;4.17;;;;;;;;;;5023871;28;20334;-59
2023/06/30 02:16:11;;;;;;;4.80;4.27;;;;;;;;;;5033288;28;20374;-58
2023/06/30 02:18:39;;;;;;;6.00;3.93;;;;;;;;;;5043483;28;20116;-57
2023/06/30 02:21:05;;;;;;;5.30;4.07;;;;;;;;;;5038002;28;20302;-58
2023/06/30 02:23:30;;;;;;;5.05;4.40;;;;;;;;;;5030661;28;20507;-59
2023/06/30 02:25:55;;;;;;;5.03;3.80;;;;;;;;;;5022033;28;20048;-58
2023/06/30 02:28:20;;;;;;;5.45;3.97;;;;;;;;;;5040086;28;20048;-59
2023/06/30 02:30:46;;;;;;;4.93;3.97;;;;;;;;;;5031396;28;20079;-60
2023/06/30 02:33:11;;;;;;;6.07;3.90;;;;;;;;;;5030773;28;20072;-60
2023/06/30 02:35:36;;;;;;;6.60;4.30;;;;;;;;;;5026461;28;20932;-58
2023/06/30 02:38:03;;;;;;;5.17;3.90;;;;;;;;;;5031134;28;21078;-60
2023/06/30 02:40:29;;;;;;;4.85;3.67;;;;;;;;;;5034390;28;20279;-59
2023/06/30 02:42:55;;;;;;;5.25;4.00;;;;;;;;;;5030014;28;20049;-60
2023/06/30 02:45:20;;;;;;;4.93;4.05;;;;;;;;;;5029746;28;20057;-60
2023/06/30 02:47:46;;;;;;;6.07;4.30;;;;;;;;;;5042100;28;20584;-59
2023/06/30 02:50:11;;;;;;;6.30;3.72;;;;;;;;;;5024879;28;20525;-60
2023/06/30 02:52:36;;;;;;;5.90;4.13;;;;;;;;;;5042413;28;20085;-58
2023/06/30 02:55:01;;;;;;;5.17;3.70;;;;;;;;;;5007626;28;20038;-58
2023/06/30 02:57:26;;;;;;;4.27;3.53;;;;;;;;;;5017729;28;20287;-59
2023/06/30 02:59:52;;;;;;;7.67;4.23;;;;;;;;;;5035733;28;21038;-58
2023/06/30 03:02:17;;;;;;;5.67;4.17;;;;;;;;;;5039942;28;20669;-59
2023/06/30 03:04:42;;;;;;;5.93;4.13;;;;;;;;;;5029702;28;20304;-59
2023/06/30 03:07:07;;;;;;;5.13;4.03;;;;;;;;;;5041522;28;20033;-57
2023/06/30 03:09:33;;;;;;;6.90;4.10;;;;;;;;;;5036108;28;20813;-61
2023/06/30 03:11:58;;;;;;;4.70;4.10;;;;;;;;;;5037264;28;20275;-57
2023/06/30 03:14:23;;;;;;;5.83;3.97;;;;;;;;;;5008067;28;20315;-60
2023/06/30 03:16:48;;;;;;;5.50;4.03;;;;;;;;;;5042608;28;20287;-60
2023/06/30 03:19:14;;;;;;;5.57;4.00;;;;;;;;;;5033382;28;20302;-58
2023/06/30 03:21:39;;;;;;;6.10;4.40;;;;;;;;;;5040516;28;20283;-59
2023/06/30 03:24:04;;;;;;;5.37;4.00;;;;;;;;;;5007229;28;20172;-57
2023/06/30 03:26:30;;;;;;;4.95;4.13;;;;;;;;;;5038365;28;20349;-58
2023/06/30 03:28:55;;;;;;;6.05;3.67;;;;;;;;;;5025338;28;20073;-59
2023/06/30 03:31:20;;;;;;;4.50;3.97;;;;;;;;;;5025981;28;20132;-65
2023/06/30 03:33:46;;;;;;;5.40;4.40;;;;;;;;;;5022635;28;20402;-60
2023/06/30 03:36:12;;;;;;;6.00;4.07;;;;;;;;;;5032451;28;20041;-60
2023/06/30 03:38:37;;;;;;;7.00;4.20;;;;;;;;;;5035622;28;20033;-60
2023/06/30 03:41:02;;;;;;;5.30;4.07;;;;;;;;;;5025665;28;20580;-60
2023/06/30 03:43:28;;;;;;;5.20;4.20;;;;;;;;;;5039387;28;20031;-60
2023/06/30 03:45:53;;;;;;;6.13;3.90;;;;;;;;;;5041971;28;20307;-58
2023/06/30 03:48:20;;;;;;;8.07;4.15;;;;;;;;;;5030982;28;20072;-59
2023/06/30 03:50:45;;;;;;;5.07;4.07;;;;;;;;;;5037448;28;20029;-58
2023/06/30 03:53:10;;;;;;;5.93;4.07;;;;;;;;;;5035618;28;20518;-57
2023/06/30 03:55:36;;;;;;;5.50;4.20;;;;;;;;;;5030134;28;20028;-63
2023/06/30 03:58:02;;;;;;;6.15;3.70;;;;;;;;;;5028656;28;20362;-60
2023/06/30 04:00:28;;;;;;;6.30;4.25;;;;;;;;;;5028540;28;20020;-61
2023/06/30 04:02:53;;;;;;;5.70;4.18;;;;;;;;;;5016571;28;20112;-57
2023/06/30 04:05:18;;;;;;;5.97;4.17;;;;;;;;;;4999928;28;20511;-59
2023/06/30 04:07:43;;;;;;;5.60;4.75;;;;;;;;;;5017076;28;20319;-64
2023/06/30 04:10:09;;;;;;;8.67;5.10;;;;;;;;;;5028856;28;20479;-58
2023/06/30 04:12:34;;;;;;;6.20;4.93;;;;;;;;;;5011715;28;20267;-58
2023/06/30 04:15:00;;;;;;;5.82;4.68;;;;;;;;;;5010664;28;20402;-61
2023/06/30 04:17:25;;;;;;;8.23;5.10;;;;;;;;;;5029755;28;20025;-60
2023/06/30 04:19:50;;;;;;;5.80;4.88;;;;;;;;;;5010271;28;20053;-59
2023/06/30 04:22:16;;;;;;;5.57;4.97;;;;;;;;;;5027023;28;20043;-61
2023/06/30 04:24:41;;;;;;;7.38;5.05;;;;;;;;;;5046793;28;20310;-60
2023/06/30 04:27:06;;;;;;;7.37;5.43;;;;;;;;;;5014241;28;20025;-60
2023/06/30 04:29:31;;;;;;;8.17;5.57;;;;;;;;;;5031775;28;20072;-59
2023/06/30 04:31:56;;;;;;;9.13;5.70;;;;;;;;;;5031860;28;20662;-61
2023/06/30 04:34:22;;;;;;;8.17;5.83;;;;;;;;;;5032282;28;20650;-58
2023/06/30 04:36:49;;;;;;;6.93;5.35;;;;;;;;;;5032202;28;20267;-58
2023/06/30 04:39:14;;;;;;;11.07;5.95;;;;;;;;;;5033057;28;20025;-61
2023/06/30 04:41:40;;;;;;;7.05;5.80;;;;;;;;;;5031578;28;20025;-59
2023/06/30 04:44:05;;;;;;;8.85;5.50;;;;;;;;;;5034653;28;20029;-58
2023/06/30 04:46:30;;;;;;;8.40;5.70;;;;;;;;;;5031989;28;20017;-59
2023/06/30 04:48:55;;;;;;;10.63;7.00;;;;;;;;;;5031301;28;20271;-61
2023/06/30 04:51:21;;;;;;;9.70;7.30;;;;;;;;;;5031890;28;20341;-59
2023/06/30 04:53:46;;;;;;;10.43;6.10;;;;;;;;;;5032256;28;20029;-60
2023/06/30 04:56:11;;;;;;;11.33;7.47;;;;;;;;;;5032389;28;20042;-58
2023/06/30 04:58:36;;;;;;;10.77;6.90;;;;;;;;;;5033165;28;20130;-61
2023/06/30 05:01:04;;;;;;;11.02;7.30;;;;;;;;;;5013845;28;20283;-60
2023/06/30 05:03:29;;;;;;;13.07;8.35;;;;;;;;;;5030877;28;20449;-60
2023/06/30 05:05:56;;;;;;;9.70;6.10;;;;;;;;;;5031105;28;20097;-58
2023/06/30 05:08:21;;;;;;;8.52;6.18;;;;;;;;;;5031452;28;20040;-59
2023/06/30 05:10:47;;;;;;;9.43;6.57;;;;;;;;;;5032746;28;20032;-59
2023/06/30 05:13:12;;;;;;;8.80;5.97;;;;;;;;;;5030347;28;20032;-61
2023/06/30 05:15:38;;;;;;;10.88;6.63;;;;;;;;;;5046607;28;20723;-62
2023/06/30 05:18:05;;;;;;;8.03;5.97;;;;;;;;;;5012937;28;20038;-61
2023/06/30 05:20:32;;;;;;;9.00;6.00;;;;;;;;;;5032900;28;20397;-62
2023/06/30 05:22:57;;;;;;;8.68;6.30;;;;;;;;;;5033510;28;20040;-63
2023/06/30 05:25:22;;;;;;;8.27;5.77;;;;;;;;;;5047376;28;20415;-59
2023/06/30 05:27:47;;;;;;;10.87;5.97;;;;;;;;;;5031946;28;20486;-59
2023/06/30 05:30:13;;;;;;;7.73;6.13;;;;;;;;;;5030199;28;20347;-58
2023/06/30 05:32:38;;;;;;;10.60;5.63;;;;;;;;;;5018301;28;20348;-58
2023/06/30 05:35:03;;;;;;;8.30;5.17;;;;;;;;;;5031616;28;20542;-60
2023/06/30 05:37:28;;;;;;;8.25;5.47;;;;;;;;;;5032840;28;20279;-59
2023/06/30 05:39:54;;;;;;;8.73;5.90;;;;;;;;;;5014425;28;20036;-60
2023/06/30 05:42:19;;;;;;;8.47;6.20;;;;;;;;;;5030285;28;20402;-57
2023/06/30 05:44:44;;;;;;;9.80;5.90;;;;;;;;;;5032487;28;20499;-58
2023/06/30 05:47:09;;;;;;;11.18;6.50;;;;;;;;;;5014800;28;20422;-59
2023/06/30 05:49:35;;;;;;;7.83;6.00;;;;;;;;;;5030712;28;20048;-58
2023/06/30 05:52:00;;;;;;;7.40;5.70;;;;;;;;;;5014224;28;20291;-59
2023/06/30 05:54:25;;;;;;;8.05;5.60;;;;;;;;;;5030925;28;20291;-60
2023/06/30 05:56:50;;;;;;;12.20;7.50;;;;;;;;;;5013321;28;20048;-59
2023/06/30 05:59:16;;;;;;;12.80;7.88;;;;;;;;;;5030334;28;20429;-60
2023/06/30 06:01:41;;;;;;;9.20;6.83;;;;;;;;;;5031439;28;20556;-59
2023/06/30 06:04:08;;;;;;;8.23;6.40;;;;;;;;;;5031761;28;20797;-59
2023/06/30 06:06:33;;;;;;;7.63;6.00;;;;;;;;;;5011760;28;20279;-58
2023/06/30 06:08:58;;;;;;;7.47;6.10;;;;;;;;;;5030889;28;20037;-59
2023/06/30 06:11:23;;;;;;;13.70;6.50;;;;;;;;;;5029616;28;20799;-60
2023/06/30 06:13:48;;;;;;;6.73;5.20;;;;;;;;;;4994976;28;20361;-60
2023/06/30 06:16:14;;;;;;;8.88;6.05;;;;;;;;;;5012677;28;20287;-57
2023/06/30 06:18:39;;;;;;;7.15;5.90;;;;;;;;;;5029992;28;20398;-58
2023/06/30 06:21:04;;;;;;;10.27;5.03;;;;;;;;;;5012263;28;20052;-59
2023/06/30 06:23:30;;;;;;;8.02;6.00;;;;;;;;;;5028702;28;20332;-59
2023/06/30 06:25:55;;;;;;;8.55;5.95;;;;;;;;;;5030420;28;20483;-58
2023/06/30 06:28:20;;;;;;;8.80;5.60;;;;;;;;;;5044583;28;20449;-57
2023/06/30 06:30:45;;;;;;;5.93;4.90;;;;;;;;;;5028935;28;20283;-59
2023/06/30 06:33:11;;;;;;;10.23;5.70;;;;;;;;;;5031724;28;20340;-61
2023/06/30 06:35:36;;;;;;;8.83;5.60;;;;;;;;;;5030032;28;20033;-62
2023/06/30 06:38:01;;;;;;;10.02;5.95;;;;;;;;;;5027675;28;20280;-57
2023/06/30 06:40:30;;;;;;;8.77;5.97;;;;;;;;;;4996046;28;20028;-60
2023/06/30 06:42:55;;;;;;;8.35;5.40;;;;;;;;;;5044985;28;20049;-59
2023/06/30 06:45:21;;;;;;;8.32;5.75;;;;;;;;;;5028746;28;20260;-61
2023/06/30 06:48:05;;;;;;;10.63;5.75;;;;;;;;;;5046021;28;20044;-58
2023/06/30 06:50:30;;;;;;;8.00;5.55;;;;;;;;;;5030692;28;20031;-60
2023/06/30 06:52:55;;;;;;;6.68;5.38;;;;;;;;;;5030859;28;20204;-61
2023/06/30 06:55:21;;;;;;;9.05;6.18;;;;;;;;;;5025638;28;20059;-60
2023/06/30 06:57:48;;;;;;;9.27;5.60;;;;;;;;;;5029393;28;20419;-60
2023/06/30 07:00:14;;;;;;;7.15;4.97;;;;;;;;;;5010335;28;20296;-59
2023/06/30 07:02:39;;;;;;;6.40;5.20;;;;;;;;;;5011514;28;20120;-58
2023/06/30 07:05:05;;;;;;;6.43;5.07;;;;;;;;;;5012241;28;20508;-58
2023/06/30 07:07:30;;;;;;;6.68;5.38;;;;;;;;;;5028723;28;20037;-59
2023/06/30 07:09:55;;;;;;;6.97;5.33;;;;;;;;;;5007787;28;20042;-59
2023/06/30 07:12:20;;;;;;;6.57;5.57;;;;;;;;;;5029664;28;20053;-60
2023/06/30 07:14:45;;;;;;;7.30;5.00;;;;;;;;;;5010779;28;20124;-60
2023/06/30 07:17:11;;;;;;;8.17;5.37;;;;;;;;;;5039058;28;20302;-59
2023/06/30 07:19:36;;;;;;;7.70;5.37;;;;;;;;;;5016690;28;20033;-58
2023/06/30 07:22:01;;;;;;;6.47;5.03;;;;;;;;;;5029699;28;20666;-58
2023/06/30 07:24:26;;;;;;;8.40;5.83;;;;;;;;;;5014373;28;20476;-59
2023/06/30 07:26:52;;;;;;;9.05;4.93;;;;;;;;;;5032716;28;20427;-58
2023/06/30 07:29:17;;;;;;;7.30;5.70;;;;;;;;;;5026901;28;20073;-58
2023/06/30 07:31:42;;;;;;;7.50;4.87;;;;;;;;;;5034704;28;20029;-61
2023/06/30 07:34:07;;;;;;;7.17;4.97;;;;;;;;;;5018663;28;20052;-59
2023/06/30 07:36:32;;;;;;;7.27;5.33;;;;;;;;;;5018730;28;20034;-59
2023/06/30 07:38:58;;;;;;;5.83;4.83;;;;;;;;;;5034705;28;20029;-59
2023/06/30 07:41:23;;;;;;;7.77;5.13;;;;;;;;;;5038041;28;20040;-59
2023/06/30 07:43:48;;;;;;;5.67;4.90;;;;;;;;;;5014744;28;20034;-57
2023/06/30 07:46:14;;;;;;;6.17;5.13;;;;;;;;;;5041918;28;20288;-58
2023/06/30 07:48:39;;;;;;;9.73;4.90;;;;;;;;;;5015176;28;20037;-59
2023/06/30 07:51:04;;;;;;;8.37;5.30;;;;;;;;;;5012884;28;20418;-58
2023/06/30 07:53:29;;;;;;;7.40;5.23;;;;;;;;;;5033775;28;20210;-59
2023/06/30 07:55:55;;;;;;;9.63;5.40;;;;;;;;;;5034409;28;20061;-58
2023/06/30 07:58:20;;;;;;;10.17;5.33;;;;;;;;;;5033120;28;20159;-59
2023/06/30 08:00:45;;;;;;;8.60;5.10;;;;;;;;;;5032666;28;20390;-58
2023/06/30 08:03:10;;;;;;;7.43;4.70;;;;;;;;;;5016345;28;20294;-57
2023/06/30 08:05:36;;;;;;;5.87;4.33;;;;;;;;;;5048215;28;20878;-57
2023/06/30 08:08:01;;;;;;;6.53;3.90;;;;;;;;;;5048245;28;20306;-58
2023/06/30 08:10:26;;;;;;;4.68;3.60;;;;;;;;;;5047610;28;20302;-58
2023/06/30 08:12:51;;;;;;;6.45;3.90;;;;;;;;;;5047778;28;20562;-58
2023/06/30 08:15:17;;;;;;;8.13;3.90;;;;;;;;;;5047613;28;20408;-57
2023/06/30 08:17:42;;;;;;;5.25;3.45;;;;;;;;;;5029886;28;20271;-60
2023/06/30 08:20:08;;;;;;;6.43;3.65;;;;;;;;;;5048295;28;20506;-58
2023/06/30 08:22:33;;;;;;;6.80;3.50;;;;;;;;;;5047713;28;20033;-58
2023/06/30 08:24:58;;;;;;;6.57;3.50;;;;;;;;;;5046411;28;20054;-58
2023/06/30 08:27:23;;;;;;;4.67;2.93;;;;;;;;;;5030094;28;20810;-58
2023/06/30 08:29:49;;;;;;;5.53;3.25;;;;;;;;;;5048321;28;20295;-59
2023/06/30 08:32:14;;;;;;;3.57;2.67;;;;;;;;;;5045125;28;20538;-58
2023/06/30 08:34:39;;;;;;;5.63;3.10;;;;;;;;;;5028529;28;20276;-59
2023/06/30 08:37:05;;;;;;;4.00;3.33;;;;;;;;;;5029208;28;20283;-60
2023/06/30 08:39:31;;;;;;;3.30;2.70;;;;;;;;;;5046863;28;20029;-59
2023/06/30 08:41:56;;;;;;;3.83;2.58;;;;;;;;;;5046235;28;20446;-58
2023/06/30 08:44:23;;;;;;;4.32;2.65;;;;;;;;;;5011454;28;20033;-59
2023/06/30 08:46:48;;;;;;;4.28;2.70;;;;;;;;;;5047065;28;20033;-58
2023/06/30 08:49:14;;;;;;;3.92;2.70;;;;;;;;;;5046781;28;20423;-58
2023/06/30 08:51:39;;;;;;;5.15;2.92;;;;;;;;;;5029215;28;20041;-57
2023/06/30 08:54:04;;;;;;;5.20;2.90;;;;;;;;;;5046602;28;20119;-59
2023/06/30 08:56:30;;;;;;;4.77;2.83;;;;;;;;;;5029462;28;20499;-59
2023/06/30 08:58:55;;;;;;;4.30;2.83;;;;;;;;;;5013237;28;20300;-58
2023/06/30 09:01:20;;;;;;;5.00;3.00;;;;;;;;;;5029439;28;20282;-58
2023/06/30 09:03:45;;;;;;;3.87;3.10;;;;;;;;;;5046444;28;20283;-58
2023/06/30 09:06:11;;;;;;;3.30;3.00;;;;;;;;;;5047001;28;20049;-59
2023/06/30 09:08:46;;;;;;;4.82;2.30;;;;;;;;;;5028521;28;20268;-58
2023/06/30 09:11:11;;;;;;;4.20;3.20;;;;;;;;;;5047773;28;20033;-60
2023/06/30 09:13:37;;;;;;;5.10;2.47;;;;;;;;;;5045437;28;20033;-60
2023/06/30 09:16:06;;;;;;;4.18;2.80;;;;;;;;;;5023934;28;20038;-59
2023/06/30 09:18:31;;;;;;;4.60;2.87;;;;;;;;;;5037598;28;20166;-59
2023/06/30 09:20:57;;;;;;;4.38;3.10;;;;;;;;;;5031178;28;20061;-61
2023/06/30 09:23:22;;;;;;;5.88;3.40;;;;;;;;;;5033428;28;20083;-59
2023/06/30 09:25:47;;;;;;;5.03;3.30;;;;;;;;;;5031211;28;20115;-58
2023/06/30 09:28:14;;;;;;;5.00;2.83;;;;;;;;;;5034954;28;20049;-58
2023/06/30 09:30:43;;;;;;;3.95;2.80;;;;;;;;;;5031355;28;20867;-60
2023/06/30 09:33:09;;;;;;;5.13;2.65;;;;;;;;;;5030985;28;20064;-60
2023/06/30 09:35:44;;;;;;;3.93;3.10;;;;;;;;;;5017496;28;20064;-58
2023/06/30 09:38:12;;;;;;;5.85;2.85;;;;;;;;;;5013381;28;20295;-58
2023/06/30 09:40:38;;;;;;;4.30;2.72;;;;;;;;;;5032650;28;20050;-58
2023/06/30 09:43:04;;;;;;;4.75;3.10;;;;;;;;;;5032775;28;20770;-58
2023/06/30 09:45:29;;;;;;;5.25;3.00;;;;;;;;;;5014539;28;20438;-59
2023/06/30 09:47:54;;;;;;;4.97;3.10;;;;;;;;;;5031492;28;20468;-59
2023/06/30 09:50:26;;;;;;;7.55;3.05;;;;;;;;;;5032223;28;20481;-60
2023/06/30 09:52:51;;;;;;;4.57;2.72;;;;;;;;;;5030660;28;20036;-57
2023/06/30 09:55:16;;;;;;;7.10;3.40;;;;;;;;;;5031194;28;20522;-58
2023/06/30 09:57:43;;;;;;;6.32;2.83;;;;;;;;;;5035435;28;20662;-58
2023/06/30 10:00:12;;;;;;;4.45;3.20;;;;;;;;;;5013184;28;20026;-58
2023/06/30 10:02:39;;;;;;;5.85;3.30;;;;;;;;;;5035873;28;20100;-56
2023/06/30 10:05:05;;;;;;;4.25;3.03;;;;;;;;;;5036645;28;20053;-58
2023/06/30 10:07:31;;;;;;;4.50;2.80;;;;;;;;;;5021123;28;20542;-58
2023/06/30 10:09:56;;;;;;;7.10;3.88;;;;;;;;;;5034735;28;20065;-58
2023/06/30 10:12:22;;;;;;;4.37;3.30;;;;;;;;;;5035084;28;20452;-59
2023/06/30 10:14:48;;;;;;;5.53;3.53;;;;;;;;;;5037111;28;20288;-57
2023/06/30 10:17:13;;;;;;;4.80;3.42;;;;;;;;;;5035782;28;20033;-57
2023/06/30 10:19:39;;;;;;;4.37;3.43;;;;;;;;;;5014055;28;20041;-57
2023/06/30 10:22:04;;;;;;;4.53;3.70;;;;;;;;;;5009641;28;20084;-59
2023/06/30 10:24:37;;;;;;;4.87;3.60;;;;;;;;;;5032413;28;20388;-59
2023/06/30 10:27:02;;;;;;;4.65;3.15;;;;;;;;;;5048051;28;20358;-57
2023/06/30 10:29:28;;;;;;;4.25;3.80;;;;;;;;;;5031790;28;20121;-58
2023/06/30 10:31:53;;;;;;;6.88;3.70;;;;;;;;;;5011378;28;20036;-57
2023/06/30 10:34:18;;;;;;;6.20;3.80;;;;;;;;;;5030160;28;20047;-57
2023/06/30 10:36:43;;;;;;;6.43;3.33;;;;;;;;;;5037697;28;20542;-56
2023/06/30 10:39:09;;;;;;;4.80;3.50;;;;;;;;;;5035606;28;20768;-57
2023/06/30 10:41:47;;;;;;;4.80;3.65;;;;;;;;;;5032364;28;20661;-57
2023/06/30 10:44:12;;;;;;;6.68;3.35;;;;;;;;;;5031706;28;20024;-57
2023/06/30 10:46:55;;;;;;;3.83;3.13;;;;;;;;;;5032239;28;20032;-57
2023/06/30 10:49:23;;;;;;;4.30;3.42;;;;;;;;;;5029294;28;20769;-57
2023/06/30 10:51:55;;;;;;;4.28;3.40;;;;;;;;;;5051521;27;20435;-57
2023/06/30 10:54:27;;;;;;;5.70;3.53;;;;;;;;;;5016746;28;20175;-57
2023/06/30 10:57:02;;;;;;;9.48;3.88;;;;;;;;;;5027718;28;20061;-57
2023/06/30 10:59:34;;;;;;;3.75;3.30;;;;;;;;;;5004681;28;20486;-57
2023/06/30 11:02:08;;;;;;;4.25;3.13;;;;;;;;;;5025412;28;20047;-57
2023/06/30 11:04:37;;;;;;;4.50;3.08;;;;;;;;;;5027570;28;20759;-58
2023/06/30 11:07:02;;;;;;;5.07;2.90;;;;;;;;;;5022075;28;20037;-58
2023/06/30 11:09:36;;;;;;;4.28;3.17;;;;;;;;;;5027585;28;20034;-57
2023/06/30 11:12:01;;;;;;;4.68;3.45;;;;;;;;;;5014933;28;20571;-56
2023/06/30 11:14:31;;;;;;;4.77;3.17;;;;;;;;;;5007748;28;20524;-59
2023/06/30 11:17:05;;;;;;;5.10;3.33;;;;;;;;;;5021687;28;20038;-59
2023/06/30 11:19:31;;;;;;;4.15;3.10;;;;;;;;;;5028305;28;20091;-57
2023/06/30 11:22:15;;;;;;;5.65;3.40;;;;;;;;;;5018493;28;20049;-58
2023/06/30 11:24:40;;;;;;;4.90;3.50;;;;;;;;;;5029390;28;20046;-57
2023/06/30 11:27:05;;;;;;;4.23;3.10;;;;;;;;;;5003662;28;20524;-56
2023/06/30 11:29:31;;;;;;;6.63;3.43;;;;;;;;;;5016087;28;20383;-57
2023/06/30 11:31:56;;;;;;;5.93;3.70;;;;;;;;;;5014139;28;20304;-58
2023/06/30 11:34:21;;;;;;;4.70;3.50;;;;;;;;;;5027890;28;20073;-56
2023/06/30 11:36:47;;;;;;;5.13;3.50;;;;;;;;;;5019615;28;20293;-58
2023/06/30 11:39:13;;;;;;;4.28;3.38;;;;;;;;;;5033028;28;20137;-56
2023/06/30 11:41:38;;;;;;;4.70;3.55;;;;;;;;;;5015482;28;20032;-59
2023/06/30 11:44:04;;;;;;;5.43;3.63;;;;;;;;;;5028794;28;20125;-57
2023/06/30 11:46:35;;;;;;;4.88;3.58;;;;;;;;;;5008656;28;20297;-57
2023/06/30 11:49:01;;;;;;;6.38;3.90;;;;;;;;;;4997344;28;20033;-58
2023/06/30 11:51:26;;;;;;;6.22;3.67;;;;;;;;;;5018354;28;20172;-58
2023/06/30 11:53:51;;;;;;;5.10;3.60;;;;;;;;;;5025989;28;20037;-57
2023/06/30 11:56:20;;;;;;;5.47;3.67;;;;;;;;;;5029993;28;20312;-57
2023/06/30 11:58:48;;;;;;;6.43;3.65;;;;;;;;;;5014762;28;20311;-58
2023/06/30 12:01:14;;;;;;;4.43;3.75;;;;;;;;;;5014567;28;20038;-58
2023/06/30 12:03:39;;;;;;;5.87;4.27;;;;;;;;;;5006150;28;21083;-58
2023/06/30 12:06:04;;;;;;;7.38;4.00;;;;;;;;;;5004914;28;20041;-57
2023/06/30 12:08:30;;;;;;;8.93;4.43;;;;;;;;;;5024050;28;20077;-57
2023/06/30 12:10:55;;;;;;;5.90;4.25;;;;;;;;;;5005148;28;20061;-59
2023/06/30 12:13:21;;;;;;;5.40;4.07;;;;;;;;;;5025484;28;20082;-56
2023/06/30 12:15:46;;;;;;;6.47;3.83;;;;;;;;;;4994214;28;20393;-57
2023/06/30 12:18:12;;;;;;;5.18;4.22;;;;;;;;;;5007702;28;20029;-58
2023/06/30 12:20:37;;;;;;;5.88;4.30;;;;;;;;;;5007453;28;20034;-57
2023/06/30 12:23:06;;;;;;;5.47;3.83;;;;;;;;;;5002376;28;20025;-56
2023/06/30 12:25:33;;;;;;;5.50;3.50;;;;;;;;;;5019435;28;20036;-57
2023/06/30 12:27:58;;;;;;;5.68;3.65;;;;;;;;;;4989935;28;20457;-56
2023/06/30 12:30:26;;;;;;;3.33;2.97;;;;;;;;;;5025166;28;20033;-59
2023/06/30 12:32:57;;;;;;;5.10;3.20;;;;;;;;;;5025918;28;20176;-58
2023/06/30 12:35:29;;;;;;;4.03;2.83;;;;;;;;;;5024310;28;20500;-56
2023/06/30 12:37:55;;;;;;;4.43;2.90;;;;;;;;;;5001715;28;20505;-56
2023/06/30 12:40:21;;;;;;;3.70;2.73;;;;;;;;;;5015101;28;20529;-57
2023/06/30 12:42:47;;;;;;;3.63;2.60;;;;;;;;;;4984964;28;20171;-57
2023/06/30 12:45:13;;;;;;;4.15;2.75;;;;;;;;;;5014687;28;20034;-57
2023/06/30 12:47:38;;;;;;;4.25;2.60;;;;;;;;;;4997709;28;20033;-57
2023/06/30 12:50:04;;;;;;;3.03;2.50;;;;;;;;;;5016921;28;20080;-57
2023/06/30 12:52:29;;;;;;;3.03;2.30;;;;;;;;;;4989087;28;20038;-56
2023/06/30 12:54:54;;;;;;;2.97;2.30;;;;;;;;;;5006138;28;20068;-57
2023/06/30 12:57:20;;;;;;;3.00;2.60;;;;;;;;;;5020140;28;20053;-56
2023/06/30 12:59:45;;;;;;;3.10;2.20;;;;;;;;;;5005978;28;20045;-57
2023/06/30 13:02:10;;;;;;;3.80;2.40;;;;;;;;;;5005920;28;20269;-58
2023/06/30 13:04:36;;;;;;;2.90;2.60;;;;;;;;;;5007880;28;20276;-58
2023/06/30 13:07:01;;;;;;;3.08;2.58;;;;;;;;;;5020261;28;20285;-57
2023/06/30 13:09:26;;;;;;;5.03;2.53;;;;;;;;;;5006291;28;20037;-57
2023/06/30 13:11:51;;;;;;;3.07;2.20;;;;;;;;;;5007548;28;20346;-58
2023/06/30 13:14:17;;;;;;;4.10;1.90;;;;;;;;;;5012757;28;20317;-59
2023/06/30 13:16:42;;;;;;;1.93;1.77;;;;;;;;;;5005190;28;20393;-58
2023/06/30 13:19:07;;;;;;;2.50;1.80;;;;;;;;;;5020839;28;20292;-55
2023/06/30 13:21:32;;;;;;;2.92;1.73;;;;;;;;;;5016403;28;20285;-57
2023/06/30 13:23:58;;;;;;;1.80;1.30;;;;;;;;;;4990260;28;20213;-56
2023/06/30 13:26:23;;;;;;;2.60;1.70;;;;;;;;;;5011951;28;20062;-57
2023/06/30 13:28:48;;;;;;;1.97;1.40;;;;;;;;;;4996860;28;20033;-57
2023/06/30 13:31:13;;;;;;;2.90;1.60;;;;;;;;;;5020766;28;20591;-58
2023/06/30 13:33:39;;;;;;;1.83;1.43;;;;;;;;;;5002940;28;20064;-57
2023/06/30 13:36:04;;;;;;;3.70;1.40;;;;;;;;;;5002336;28;21112;-59
2023/06/30 13:38:29;;;;;;;2.75;1.40;;;;;;;;;;5007756;28;20306;-58
2023/06/30 13:40:55;;;;;;;2.13;1.50;;;;;;;;;;5019988;28;20092;-59
2023/06/30 13:43:20;;;;;;;1.90;1.30;;;;;;;;;;5008563;28;20635;-57
2023/06/30 13:45:45;;;;;;;1.73;1.20;;;;;;;;;;5019228;28;20073;-59
2023/06/30 13:48:10;;;;;;;3.60;1.70;;;;;;;;;;5001209;28;20082;-57
2023/06/30 13:50:36;;;;;;;3.75;1.40;;;;;;;;;;5018273;28;20288;-58
2023/06/30 13:53:01;;;;;;;2.10;1.47;;;;;;;;;;5002162;28;20037;-57
2023/06/30 13:55:26;;;;;;;3.07;1.60;;;;;;;;;;5010849;28;20077;-57
2023/06/30 13:57:51;;;;;;;2.83;1.60;;;;;;;;;;5005403;28;20034;-57
2023/06/30 14:00:17;;;;;;;2.23;1.60;;;;;;;;;;5006529;28;20034;-57
2023/06/30 14:02:42;;;;;;;2.40;1.70;;;;;;;;;;5007661;28;20750;-57
2023/06/30 14:05:07;;;;;;;4.47;1.70;;;;;;;;;;5005261;28;20030;-57
2023/06/30 14:07:33;;;;;;;2.15;1.60;;;;;;;;;;4977355;28;20284;-57
2023/06/30 14:09:58;;;;;;;2.70;1.40;;;;;;;;;;4990337;28;20046;-57
2023/06/30 14:12:23;;;;;;;3.27;1.40;;;;;;;;;;4973354;28;20033;-57
2023/06/30 14:14:49;;;;;;;3.25;1.60;;;;;;;;;;5008819;28;20818;-57
2023/06/30 14:17:14;;;;;;;3.37;1.33;;;;;;;;;;4996010;28;20254;-56
2023/06/30 14:19:39;;;;;;;2.70;1.47;;;;;;;;;;5008198;28;20073;-56
2023/06/30 14:22:04;;;;;;;3.75;1.65;;;;;;;;;;5002308;28;20037;-57
2023/06/30 14:24:30;;;;;;;3.05;1.52;;;;;;;;;;5010502;28;20077;-58
2023/06/30 14:26:55;;;;;;;3.47;1.48;;;;;;;;;;5002392;28;20120;-58
2023/06/30 14:29:20;;;;;;;2.40;1.67;;;;;;;;;;5002800;28;20053;-57
2023/06/30 14:31:46;;;;;;;2.67;1.67;;;;;;;;;;5009122;28;20913;-58
2023/06/30 14:34:12;;;;;;;1.88;1.40;;;;;;;;;;5018739;28;20477;-58
2023/06/30 14:36:37;;;;;;;2.53;1.80;;;;;;;;;;4999010;28;20204;-58